sensor_id;sensor_type;location;lat;lon;timestamp;temperature;humidity
17178;DHT22;8704;52.006;4.374;2023-08-30T00:02:23;14.90;99.90
17178;DHT22;8704;52.006;4.374;2023-08-30T00:04:51;14.90;99.90
17178;DHT22;8704;52.006;4.374;2023-08-30T00:07:20;14.90;99.90
17178;DHT22;8704;52.006;4.374;2023-08-30T00:09:48;14.90;99.90
17178;DHT22;8704;52.006;4.374;2023-08-30T00:12:16;15.00;99.90
17178;DHT22;8704;52.006;4.374;2023-08-30T00:14:44;15.00;99.90
17178;DHT22;8704;52.006;4.374;2023-08-30T00:17:12;15.00;99.90
17178;DHT22;8704;52.006;4.374;2023-08-30T00:19:41;15.00;99.90
17178;DHT22;8704;52.006;4.374;2023-08-30T00:22:09;15.00;99.90
17178;DHT22;8704;52.006;4.374;2023-08-30T00:24:40;14.90;99.90
17178;DHT22;8704;52.006;4.374;2023-08-30T00:27:08;15.00;99.90
17178;DHT22;8704;52.006;4.374;2023-08-30T00:29:36;15.00;99.90
17178;DHT22;8704;52.006;4.374;2023-08-30T00:32:05;15.00;99.90
17178;DHT22;8704;52.006;4.374;2023-08-30T00:34:33;15.00;99.90
17178;DHT22;8704;52.006;4.374;2023-08-30T00:37:01;15.00;99.90
17178;DHT22;8704;52.006;4.374;2023-08-30T00:39:29;15.00;99.90
17178;DHT22;8704;52.006;4.374;2023-08-30T00:41:58;15.10;99.90
17178;DHT22;8704;52.006;4.374;2023-08-30T00:44:25;15.10;99.90
17178;DHT22;8704;52.006;4.374;2023-08-30T00:46:54;15.10;99.90
17178;DHT22;8704;52.006;4.374;2023-08-30T00:49:22;15.10;99.90
17178;DHT22;8704;52.006;4.374;2023-08-30T00:51:50;15.10;99.90
17178;DHT22;8704;52.006;4.374;2023-08-30T00:54:19;15.10;99.90
17178;DHT22;8704;52.006;4.374;2023-08-30T00:56:48;15.10;99.90
17178;DHT22;8704;52.006;4.374;2023-08-30T00:59:19;15.10;99.90
17178;DHT22;8704;52.006;4.374;2023-08-30T01:01:47;15.10;99.90
17178;DHT22;8704;52.006;4.374;2023-08-30T01:04:15;15.10;99.90
17178;DHT22;8704;52.006;4.374;2023-08-30T01:06:44;15.10;99.90
17178;DHT22;8704;52.006;4.374;2023-08-30T01:09:12;15.10;99.90
17178;DHT22;8704;52.006;4.374;2023-08-30T01:11:46;15.10;99.90
17178;DHT22;8704;52.006;4.374;2023-08-30T01:14:20;15.10;99.90
17178;DHT22;8704;52.006;4.374;2023-08-30T01:16:49;15.10;99.90
17178;DHT22;8704;52.006;4.374;2023-08-30T01:19:29;15.10;99.90
17178;DHT22;8704;52.006;4.374;2023-08-30T01:22:11;15.10;99.90
17178;DHT22;8704;52.006;4.374;2023-08-30T01:24:45;15.20;99.90
17178;DHT22;8704;52.006;4.374;2023-08-30T01:27:18;15.20;99.90
17178;DHT22;8704;52.006;4.374;2023-08-30T01:29:47;15.20;99.90
17178;DHT22;8704;52.006;4.374;2023-08-30T01:32:17;15.20;99.90
17178;DHT22;8704;52.006;4.374;2023-08-30T01:34:48;15.20;99.90
17178;DHT22;8704;52.006;4.374;2023-08-30T01:37:17;15.20;99.90
17178;DHT22;8704;52.006;4.374;2023-08-30T01:39:46;15.30;99.90
17178;DHT22;8704;52.006;4.374;2023-08-30T01:42:15;15.30;99.90
17178;DHT22;8704;52.006;4.374;2023-08-30T01:44:50;15.30;99.90
17178;DHT22;8704;52.006;4.374;2023-08-30T01:47:23;15.30;99.90
17178;DHT22;8704;52.006;4.374;2023-08-30T01:49:52;15.30;99.90
17178;DHT22;8704;52.006;4.374;2023-08-30T01:52:21;15.30;99.90
17178;DHT22;8704;52.006;4.374;2023-08-30T01:54:52;15.30;99.90
17178;DHT22;8704;52.006;4.374;2023-08-30T01:57:21;15.30;99.90
17178;DHT22;8704;52.006;4.374;2023-08-30T01:59:50;15.30;99.90
17178;DHT22;8704;52.006;4.374;2023-08-30T02:02:19;15.30;99.90
17178;DHT22;8704;52.006;4.374;2023-08-30T02:04:47;15.40;99.90
17178;DHT22;8704;52.006;4.374;2023-08-30T02:10:06;15.30;99.90
17178;DHT22;8704;52.006;4.374;2023-08-30T02:12:42;15.40;99.90
17178;DHT22;8704;52.006;4.374;2023-08-30T02:15:13;15.40;99.90
17178;DHT22;8704;52.006;4.374;2023-08-30T02:17:43;15.40;99.90
17178;DHT22;8704;52.006;4.374;2023-08-30T02:20:12;15.40;99.90
17178;DHT22;8704;52.006;4.374;2023-08-30T02:22:40;15.40;99.90
17178;DHT22;8704;52.006;4.374;2023-08-30T02:25:08;15.30;99.90
17178;DHT22;8704;52.006;4.374;2023-08-30T02:27:37;15.30;99.90
17178;DHT22;8704;52.006;4.374;2023-08-30T02:30:07;15.30;99.90
17178;DHT22;8704;52.006;4.374;2023-08-30T02:32:36;15.30;99.90
17178;DHT22;8704;52.006;4.374;2023-08-30T02:35:05;15.30;99.90
17178;DHT22;8704;52.006;4.374;2023-08-30T02:37:33;15.10;99.90
17178;DHT22;8704;52.006;4.374;2023-08-30T02:40:02;15.20;99.90
17178;DHT22;8704;52.006;4.374;2023-08-30T02:42:30;15.20;99.90
17178;DHT22;8704;52.006;4.374;2023-08-30T02:44:58;15.20;99.90
17178;DHT22;8704;52.006;4.374;2023-08-30T02:47:26;15.10;99.90
17178;DHT22;8704;52.006;4.374;2023-08-30T02:49:55;15.10;99.90
17178;DHT22;8704;52.006;4.374;2023-08-30T02:52:24;15.10;99.90
17178;DHT22;8704;52.006;4.374;2023-08-30T02:54:52;15.10;99.90
17178;DHT22;8704;52.006;4.374;2023-08-30T02:57:20;15.00;99.90
17178;DHT22;8704;52.006;4.374;2023-08-30T02:59:48;15.00;99.90
17178;DHT22;8704;52.006;4.374;2023-08-30T03:02:16;15.00;99.90
17178;DHT22;8704;52.006;4.374;2023-08-30T03:04:44;14.90;99.90
17178;DHT22;8704;52.006;4.374;2023-08-30T03:07:13;15.00;99.90
17178;DHT22;8704;52.006;4.374;2023-08-30T03:09:42;14.90;99.90
17178;DHT22;8704;52.006;4.374;2023-08-30T03:12:10;14.90;99.90
17178;DHT22;8704;52.006;4.374;2023-08-30T03:14:38;14.90;99.90
17178;DHT22;8704;52.006;4.374;2023-08-30T03:17:06;14.80;99.90
17178;DHT22;8704;52.006;4.374;2023-08-30T03:19:34;14.80;99.90
17178;DHT22;8704;52.006;4.374;2023-08-30T03:22:02;14.80;99.90
17178;DHT22;8704;52.006;4.374;2023-08-30T03:24:32;14.70;99.90
17178;DHT22;8704;52.006;4.374;2023-08-30T03:27:00;14.70;99.90
17178;DHT22;8704;52.006;4.374;2023-08-30T03:29:29;14.70;99.90
17178;DHT22;8704;52.006;4.374;2023-08-30T03:31:57;14.70;99.90
17178;DHT22;8704;52.006;4.374;2023-08-30T03:34:25;14.60;99.90
17178;DHT22;8704;52.006;4.374;2023-08-30T03:36:53;14.60;99.90
17178;DHT22;8704;52.006;4.374;2023-08-30T03:39:22;14.60;99.90
17178;DHT22;8704;52.006;4.374;2023-08-30T03:41:52;14.50;99.90
17178;DHT22;8704;52.006;4.374;2023-08-30T03:44:20;14.50;99.90
17178;DHT22;8704;52.006;4.374;2023-08-30T03:46:48;14.50;99.90
17178;DHT22;8704;52.006;4.374;2023-08-30T03:49:16;14.40;99.90
17178;DHT22;8704;52.006;4.374;2023-08-30T03:51:44;14.40;99.90
17178;DHT22;8704;52.006;4.374;2023-08-30T03:54:13;14.40;99.90
17178;DHT22;8704;52.006;4.374;2023-08-30T03:56:43;14.40;99.90
17178;DHT22;8704;52.006;4.374;2023-08-30T03:59:13;14.40;99.90
17178;DHT22;8704;52.006;4.374;2023-08-30T04:01:41;14.30;99.90
17178;DHT22;8704;52.006;4.374;2023-08-30T04:04:09;14.30;99.90
17178;DHT22;8704;52.006;4.374;2023-08-30T04:06:37;14.30;99.90
17178;DHT22;8704;52.006;4.374;2023-08-30T04:09:05;14.30;99.90
17178;DHT22;8704;52.006;4.374;2023-08-30T04:11:34;14.30;99.90
17178;DHT22;8704;52.006;4.374;2023-08-30T04:14:02;14.30;99.90
17178;DHT22;8704;52.006;4.374;2023-08-30T04:16:31;14.30;99.90
17178;DHT22;8704;52.006;4.374;2023-08-30T04:18:59;14.20;99.90
17178;DHT22;8704;52.006;4.374;2023-08-30T04:21:27;14.20;99.90
17178;DHT22;8704;52.006;4.374;2023-08-30T04:23:55;14.30;1.00
17178;DHT22;8704;52.006;4.374;2023-08-30T04:26:23;14.20;1.00
17178;DHT22;8704;52.006;4.374;2023-08-30T04:28:52;14.20;1.00
17178;DHT22;8704;52.006;4.374;2023-08-30T04:31:20;14.20;99.90
17178;DHT22;8704;52.006;4.374;2023-08-30T04:33:49;13.70;99.90
17178;DHT22;8704;52.006;4.374;2023-08-30T04:36:19;14.30;99.90
17178;DHT22;8704;52.006;4.374;2023-08-30T04:38:47;14.30;1.00
17178;DHT22;8704;52.006;4.374;2023-08-30T04:41:28;14.20;1.00
17178;DHT22;8704;52.006;4.374;2023-08-30T04:43:57;14.30;1.00
17178;DHT22;8704;52.006;4.374;2023-08-30T04:46:25;14.30;1.00
17178;DHT22;8704;52.006;4.374;2023-08-30T04:48:54;13.30;1.00
17178;DHT22;8704;52.006;4.374;2023-08-30T04:51:22;14.30;1.00
17178;DHT22;8704;52.006;4.374;2023-08-30T04:53:50;14.40;1.00
17178;DHT22;8704;52.006;4.374;2023-08-30T04:56:21;14.30;1.00
17178;DHT22;8704;52.006;4.374;2023-08-30T04:58:50;14.30;1.00
17178;DHT22;8704;52.006;4.374;2023-08-30T05:01:18;14.30;1.00
17178;DHT22;8704;52.006;4.374;2023-08-30T05:03:46;14.30;99.90
17178;DHT22;8704;52.006;4.374;2023-08-30T05:06:15;14.30;99.90
17178;DHT22;8704;52.006;4.374;2023-08-30T05:08:44;14.30;1.00
17178;DHT22;8704;52.006;4.374;2023-08-30T05:11:12;14.40;99.90
17178;DHT22;8704;52.006;4.374;2023-08-30T05:13:42;14.30;1.00
17178;DHT22;8704;52.006;4.374;2023-08-30T05:16:10;14.30;99.90
17178;DHT22;8704;52.006;4.374;2023-08-30T05:18:38;14.30;1.00
17178;DHT22;8704;52.006;4.374;2023-08-30T05:21:07;14.30;1.00
17178;DHT22;8704;52.006;4.374;2023-08-30T05:23:36;14.30;1.00
17178;DHT22;8704;52.006;4.374;2023-08-30T05:26:07;14.30;1.00
17178;DHT22;8704;52.006;4.374;2023-08-30T05:28:35;14.30;99.90
17178;DHT22;8704;52.006;4.374;2023-08-30T05:31:03;14.20;99.90
17178;DHT22;8704;52.006;4.374;2023-08-30T05:33:32;14.30;1.00
17178;DHT22;8704;52.006;4.374;2023-08-30T05:36:00;14.20;1.00
17178;DHT22;8704;52.006;4.374;2023-08-30T05:38:29;14.20;99.90
17178;DHT22;8704;52.006;4.374;2023-08-30T05:40:58;14.20;99.90
17178;DHT22;8704;52.006;4.374;2023-08-30T05:43:26;14.30;1.00
17178;DHT22;8704;52.006;4.374;2023-08-30T05:45:54;14.20;1.00
17178;DHT22;8704;52.006;4.374;2023-08-30T05:48:28;14.20;64.70
17178;DHT22;8704;52.006;4.374;2023-08-30T05:50:56;14.20;99.90
17178;DHT22;8704;52.006;4.374;2023-08-30T05:53:24;14.30;99.90
17178;DHT22;8704;52.006;4.374;2023-08-30T05:55:52;14.20;99.90
17178;DHT22;8704;52.006;4.374;2023-08-30T05:58:22;14.20;1.00
17178;DHT22;8704;52.006;4.374;2023-08-30T06:00:50;14.20;1.00
17178;DHT22;8704;52.006;4.374;2023-08-30T06:03:18;14.30;1.00
17178;DHT22;8704;52.006;4.374;2023-08-30T06:05:46;14.20;1.00
17178;DHT22;8704;52.006;4.374;2023-08-30T06:08:15;14.20;1.00
17178;DHT22;8704;52.006;4.374;2023-08-30T06:10:44;14.30;1.00
17178;DHT22;8704;52.006;4.374;2023-08-30T06:13:15;14.20;1.00
17178;DHT22;8704;52.006;4.374;2023-08-30T06:15:44;14.20;1.00
17178;DHT22;8704;52.006;4.374;2023-08-30T06:18:12;14.20;1.00
17178;DHT22;8704;52.006;4.374;2023-08-30T06:20:41;14.30;1.00
17178;DHT22;8704;52.006;4.374;2023-08-30T06:23:09;14.20;1.00
17178;DHT22;8704;52.006;4.374;2023-08-30T06:25:39;14.20;90.00
17178;DHT22;8704;52.006;4.374;2023-08-30T06:28:07;14.20;99.90
17178;DHT22;8704;52.006;4.374;2023-08-30T06:30:36;14.30;1.00
17178;DHT22;8704;52.006;4.374;2023-08-30T06:33:06;14.30;1.00
17178;DHT22;8704;52.006;4.374;2023-08-30T06:35:36;14.40;27.00
17178;DHT22;8704;52.006;4.374;2023-08-30T06:38:05;14.40;99.90
17178;DHT22;8704;52.006;4.374;2023-08-30T06:40:34;14.40;99.90
17178;DHT22;8704;52.006;4.374;2023-08-30T06:43:03;14.40;99.90
17178;DHT22;8704;52.006;4.374;2023-08-30T06:45:31;14.40;1.00
17178;DHT22;8704;52.006;4.374;2023-08-30T06:47:59;14.40;1.00
17178;DHT22;8704;52.006;4.374;2023-08-30T06:50:29;14.50;1.00
17178;DHT22;8704;52.006;4.374;2023-08-30T06:52:57;14.40;1.00
17178;DHT22;8704;52.006;4.374;2023-08-30T06:55:25;14.40;1.00
17178;DHT22;8704;52.006;4.374;2023-08-30T06:57:56;14.50;1.00
17178;DHT22;8704;52.006;4.374;2023-08-30T07:00:24;14.40;1.00
17178;DHT22;8704;52.006;4.374;2023-08-30T07:02:52;14.50;1.00
17178;DHT22;8704;52.006;4.374;2023-08-30T07:05:22;14.50;1.00
17178;DHT22;8704;52.006;4.374;2023-08-30T07:07:51;14.50;1.00
17178;DHT22;8704;52.006;4.374;2023-08-30T07:10:19;14.50;1.00
17178;DHT22;8704;52.006;4.374;2023-08-30T07:12:47;14.60;1.00
17178;DHT22;8704;52.006;4.374;2023-08-30T07:15:16;14.60;1.00
17178;DHT22;8704;52.006;4.374;2023-08-30T07:17:44;14.60;1.00
17178;DHT22;8704;52.006;4.374;2023-08-30T07:20:19;14.50;1.00
17178;DHT22;8704;52.006;4.374;2023-08-30T07:22:47;14.60;1.00
17178;DHT22;8704;52.006;4.374;2023-08-30T07:25:18;14.60;1.00
17178;DHT22;8704;52.006;4.374;2023-08-30T07:27:46;14.60;1.00
17178;DHT22;8704;52.006;4.374;2023-08-30T07:30:14;14.60;1.00
17178;DHT22;8704;52.006;4.374;2023-08-30T07:32:42;14.60;1.00
17178;DHT22;8704;52.006;4.374;2023-08-30T07:35:10;14.60;1.00
17178;DHT22;8704;52.006;4.374;2023-08-30T07:37:41;14.70;1.00
17178;DHT22;8704;52.006;4.374;2023-08-30T07:40:10;14.70;1.00
17178;DHT22;8704;52.006;4.374;2023-08-30T07:42:43;14.70;1.00
17178;DHT22;8704;52.006;4.374;2023-08-30T07:45:12;15.20;1.00
17178;DHT22;8704;52.006;4.374;2023-08-30T07:47:40;14.80;1.00
17178;DHT22;8704;52.006;4.374;2023-08-30T07:50:08;14.80;1.00
17178;DHT22;8704;52.006;4.374;2023-08-30T07:52:36;14.80;1.00
17178;DHT22;8704;52.006;4.374;2023-08-30T07:55:13;14.80;99.90
17178;DHT22;8704;52.006;4.374;2023-08-30T07:57:42;14.90;99.90
17178;DHT22;8704;52.006;4.374;2023-08-30T08:00:11;14.90;1.00
17178;DHT22;8704;52.006;4.374;2023-08-30T08:02:40;15.00;1.00
17178;DHT22;8704;52.006;4.374;2023-08-30T08:05:08;15.00;1.00
17178;DHT22;8704;52.006;4.374;2023-08-30T08:07:38;15.10;1.00
17178;DHT22;8704;52.006;4.374;2023-08-30T08:10:07;15.10;1.00
17178;DHT22;8704;52.006;4.374;2023-08-30T08:12:36;15.20;1.00
17178;DHT22;8704;52.006;4.374;2023-08-30T08:15:07;15.20;1.00
17178;DHT22;8704;52.006;4.374;2023-08-30T08:17:35;15.20;1.00
17178;DHT22;8704;52.006;4.374;2023-08-30T08:20:05;15.20;1.00
17178;DHT22;8704;52.006;4.374;2023-08-30T08:22:33;15.30;1.00
17178;DHT22;8704;52.006;4.374;2023-08-30T08:25:04;15.40;1.00
17178;DHT22;8704;52.006;4.374;2023-08-30T08:27:32;15.40;88.80
17178;DHT22;8704;52.006;4.374;2023-08-30T08:30:00;15.50;99.90
17178;DHT22;8704;52.006;4.374;2023-08-30T08:32:29;15.50;1.00
17178;DHT22;8704;52.006;4.374;2023-08-30T08:34:58;15.60;1.00
17178;DHT22;8704;52.006;4.374;2023-08-30T08:37:26;15.60;1.00
17178;DHT22;8704;52.006;4.374;2023-08-30T08:39:54;15.80;99.90
17178;DHT22;8704;52.006;4.374;2023-08-30T08:42:22;15.80;1.00
17178;DHT22;8704;52.006;4.374;2023-08-30T08:44:54;15.80;1.00
17178;DHT22;8704;52.006;4.374;2023-08-30T08:47:22;15.90;1.00
17178;DHT22;8704;52.006;4.374;2023-08-30T08:49:52;16.00;1.00
17178;DHT22;8704;52.006;4.374;2023-08-30T08:52:20;16.10;99.90
17178;DHT22;8704;52.006;4.374;2023-08-30T08:55:00;16.20;1.00
17178;DHT22;8704;52.006;4.374;2023-08-30T08:57:29;16.10;99.90
17178;DHT22;8704;52.006;4.374;2023-08-30T08:59:59;16.10;1.00
17178;DHT22;8704;52.006;4.374;2023-08-30T09:02:27;16.20;1.00
17178;DHT22;8704;52.006;4.374;2023-08-30T09:04:58;16.20;99.90
17178;DHT22;8704;52.006;4.374;2023-08-30T09:07:27;16.30;1.00
17178;DHT22;8704;52.006;4.374;2023-08-30T09:09:57;16.40;1.00
17178;DHT22;8704;52.006;4.374;2023-08-30T09:12:25;16.40;99.90
17178;DHT22;8704;52.006;4.374;2023-08-30T09:14:54;16.60;99.90
17178;DHT22;8704;52.006;4.374;2023-08-30T09:17:35;16.70;99.90
17178;DHT22;8704;52.006;4.374;2023-08-30T09:20:12;16.70;1.00
17178;DHT22;8704;52.006;4.374;2023-08-30T09:22:41;16.70;1.00
17178;DHT22;8704;52.006;4.374;2023-08-30T09:25:11;16.80;99.90
17178;DHT22;8704;52.006;4.374;2023-08-30T09:27:39;16.90;99.90
17178;DHT22;8704;52.006;4.374;2023-08-30T09:30:10;17.00;99.90
17178;DHT22;8704;52.006;4.374;2023-08-30T09:32:39;17.00;99.90
17178;DHT22;8704;52.006;4.374;2023-08-30T09:35:11;17.10;99.90
17178;DHT22;8704;52.006;4.374;2023-08-30T09:37:39;17.20;99.90
17178;DHT22;8704;52.006;4.374;2023-08-30T09:40:08;17.30;99.90
17178;DHT22;8704;52.006;4.374;2023-08-30T09:42:40;17.30;99.90
17178;DHT22;8704;52.006;4.374;2023-08-30T09:45:18;17.30;99.90
17178;DHT22;8704;52.006;4.374;2023-08-30T09:47:47;17.20;99.90
17178;DHT22;8704;52.006;4.374;2023-08-30T09:50:18;17.20;99.90
17178;DHT22;8704;52.006;4.374;2023-08-30T09:52:47;17.10;99.90
17178;DHT22;8704;52.006;4.374;2023-08-30T09:55:18;17.10;95.60
17178;DHT22;8704;52.006;4.374;2023-08-30T09:57:51;17.00;99.90
17178;DHT22;8704;52.006;4.374;2023-08-30T10:00:21;17.00;99.90
17178;DHT22;8704;52.006;4.374;2023-08-30T10:02:49;17.00;99.90
17178;DHT22;8704;52.006;4.374;2023-08-30T10:05:41;17.00;99.90
17178;DHT22;8704;52.006;4.374;2023-08-30T10:08:11;17.00;99.90
17178;DHT22;8704;52.006;4.374;2023-08-30T10:10:41;16.90;99.30
17178;DHT22;8704;52.006;4.374;2023-08-30T10:13:09;16.90;54.40
17178;DHT22;8704;52.006;4.374;2023-08-30T10:15:42;17.00;32.40
17178;DHT22;8704;52.006;4.374;2023-08-30T10:18:16;17.00;11.30
17178;DHT22;8704;52.006;4.374;2023-08-30T10:20:50;17.00;58.30
17178;DHT22;8704;52.006;4.374;2023-08-30T10:23:23;17.10;41.40
17178;DHT22;8704;52.006;4.374;2023-08-30T10:25:53;17.20;1.70
17178;DHT22;8704;52.006;4.374;2023-08-30T10:28:23;17.20;1.00
17178;DHT22;8704;52.006;4.374;2023-08-30T10:30:53;17.30;1.00
17178;DHT22;8704;52.006;4.374;2023-08-30T10:33:21;17.30;1.00
17178;DHT22;8704;52.006;4.374;2023-08-30T10:36:04;17.40;1.00
17178;DHT22;8704;52.006;4.374;2023-08-30T10:38:33;17.30;1.00
17178;DHT22;8704;52.006;4.374;2023-08-30T10:41:08;17.50;1.00
17178;DHT22;8704;52.006;4.374;2023-08-30T10:43:36;17.80;1.00
17178;DHT22;8704;52.006;4.374;2023-08-30T10:46:05;18.00;1.00
17178;DHT22;8704;52.006;4.374;2023-08-30T10:48:37;18.00;1.00
17178;DHT22;8704;52.006;4.374;2023-08-30T10:51:20;17.90;1.00
17178;DHT22;8704;52.006;4.374;2023-08-30T10:53:55;18.00;1.00
17178;DHT22;8704;52.006;4.374;2023-08-30T10:56:28;17.90;1.00
17178;DHT22;8704;52.006;4.374;2023-08-30T10:58:57;18.10;1.00
17178;DHT22;8704;52.006;4.374;2023-08-30T11:01:27;18.20;1.00
17178;DHT22;8704;52.006;4.374;2023-08-30T11:03:56;18.30;1.00
17178;DHT22;8704;52.006;4.374;2023-08-30T11:06:43;18.30;1.00
17178;DHT22;8704;52.006;4.374;2023-08-30T11:09:13;18.50;1.00
17178;DHT22;8704;52.006;4.374;2023-08-30T11:11:45;18.40;1.00
17178;DHT22;8704;52.006;4.374;2023-08-30T11:14:13;18.40;1.00
17178;DHT22;8704;52.006;4.374;2023-08-30T11:16:42;18.40;1.00
17178;DHT22;8704;52.006;4.374;2023-08-30T11:19:13;18.40;1.00
17178;DHT22;8704;52.006;4.374;2023-08-30T11:21:44;18.90;1.00
17178;DHT22;8704;52.006;4.374;2023-08-30T11:24:13;18.60;1.00
17178;DHT22;8704;52.006;4.374;2023-08-30T11:26:43;18.50;1.00
17178;DHT22;8704;52.006;4.374;2023-08-30T11:29:11;18.30;1.00
17178;DHT22;8704;52.006;4.374;2023-08-30T11:31:39;18.30;1.00
17178;DHT22;8704;52.006;4.374;2023-08-30T11:34:14;18.60;1.00
17178;DHT22;8704;52.006;4.374;2023-08-30T11:36:52;18.70;1.00
17178;DHT22;8704;52.006;4.374;2023-08-30T11:39:20;18.60;1.00
17178;DHT22;8704;52.006;4.374;2023-08-30T11:41:50;18.60;1.00
17178;DHT22;8704;52.006;4.374;2023-08-30T11:44:23;18.60;1.00
17178;DHT22;8704;52.006;4.374;2023-08-30T11:46:57;18.70;1.00
17178;DHT22;8704;52.006;4.374;2023-08-30T11:49:26;18.80;1.00
17178;DHT22;8704;52.006;4.374;2023-08-30T11:51:59;18.90;1.00
17178;DHT22;8704;52.006;4.374;2023-08-30T11:54:27;19.00;1.00
17178;DHT22;8704;52.006;4.374;2023-08-30T11:56:56;19.00;1.00
17178;DHT22;8704;52.006;4.374;2023-08-30T11:59:24;18.80;1.00
17178;DHT22;8704;52.006;4.374;2023-08-30T12:01:52;18.70;1.00
17178;DHT22;8704;52.006;4.374;2023-08-30T12:04:20;18.60;1.00
17178;DHT22;8704;52.006;4.374;2023-08-30T12:06:51;18.40;1.00
17178;DHT22;8704;52.006;4.374;2023-08-30T12:09:21;18.30;1.00
17178;DHT22;8704;52.006;4.374;2023-08-30T12:11:49;18.20;1.00
17178;DHT22;8704;52.006;4.374;2023-08-30T12:14:17;18.20;1.00
17178;DHT22;8704;52.006;4.374;2023-08-30T12:16:45;18.50;1.00
17178;DHT22;8704;52.006;4.374;2023-08-30T12:19:14;18.60;1.00
17178;DHT22;8704;52.006;4.374;2023-08-30T12:21:44;18.70;1.00
17178;DHT22;8704;52.006;4.374;2023-08-30T12:24:15;18.60;1.00
17178;DHT22;8704;52.006;4.374;2023-08-30T12:26:44;18.60;1.00
17178;DHT22;8704;52.006;4.374;2023-08-30T12:29:12;18.60;1.00
17178;DHT22;8704;52.006;4.374;2023-08-30T12:31:40;18.30;1.00
17178;DHT22;8704;52.006;4.374;2023-08-30T12:34:08;18.40;1.00
17178;DHT22;8704;52.006;4.374;2023-08-30T12:36:36;18.20;1.00
17178;DHT22;8704;52.006;4.374;2023-08-30T12:39:06;18.60;1.00
17178;DHT22;8704;52.006;4.374;2023-08-30T12:41:35;18.90;1.00
17178;DHT22;8704;52.006;4.374;2023-08-30T12:44:05;18.90;1.00
17178;DHT22;8704;52.006;4.374;2023-08-30T12:46:33;19.10;1.00
17178;DHT22;8704;52.006;4.374;2023-08-30T12:49:01;19.20;1.00
17178;DHT22;8704;52.006;4.374;2023-08-30T12:51:29;19.40;1.00
17178;DHT22;8704;52.006;4.374;2023-08-30T12:53:57;19.50;1.00
17178;DHT22;8704;52.006;4.374;2023-08-30T12:56:25;19.50;1.00
17178;DHT22;8704;52.006;4.374;2023-08-30T12:58:54;19.50;1.00
17178;DHT22;8704;52.006;4.374;2023-08-30T13:01:23;19.30;1.00
17178;DHT22;8704;52.006;4.374;2023-08-30T13:03:52;19.20;1.00
17178;DHT22;8704;52.006;4.374;2023-08-30T13:06:20;19.10;1.00
17178;DHT22;8704;52.006;4.374;2023-08-30T13:08:48;18.90;1.00
17178;DHT22;8704;52.006;4.374;2023-08-30T13:11:16;19.00;1.00
17178;DHT22;8704;52.006;4.374;2023-08-30T13:13:44;19.00;1.00
17178;DHT22;8704;52.006;4.374;2023-08-30T13:16:12;19.00;1.00
17178;DHT22;8704;52.006;4.374;2023-08-30T13:18:42;19.20;1.00
17178;DHT22;8704;52.006;4.374;2023-08-30T13:21:10;19.20;1.00
17178;DHT22;8704;52.006;4.374;2023-08-30T13:23:38;19.50;1.00
17178;DHT22;8704;52.006;4.374;2023-08-30T13:26:06;19.40;1.00
17178;DHT22;8704;52.006;4.374;2023-08-30T13:28:34;19.20;1.00
17178;DHT22;8704;52.006;4.374;2023-08-30T13:31:02;19.00;1.00
17178;DHT22;8704;52.006;4.374;2023-08-30T13:33:30;18.90;1.00
17178;DHT22;8704;52.006;4.374;2023-08-30T13:36:00;18.80;1.00
17178;DHT22;8704;52.006;4.374;2023-08-30T13:38:29;18.80;1.00
17178;DHT22;8704;52.006;4.374;2023-08-30T13:41:00;18.80;1.00
17178;DHT22;8704;52.006;4.374;2023-08-30T13:43:30;18.80;1.00
17178;DHT22;8704;52.006;4.374;2023-08-30T13:45:59;18.70;1.00
17178;DHT22;8704;52.006;4.374;2023-08-30T13:48:27;18.60;1.00
17178;DHT22;8704;52.006;4.374;2023-08-30T13:50:55;18.70;1.00
17178;DHT22;8704;52.006;4.374;2023-08-30T13:53:25;18.60;1.00
17178;DHT22;8704;52.006;4.374;2023-08-30T13:55:54;18.40;1.00
17178;DHT22;8704;52.006;4.374;2023-08-30T13:58:22;18.30;1.00
17178;DHT22;8704;52.006;4.374;2023-08-30T14:00:50;18.30;1.00
17178;DHT22;8704;52.006;4.374;2023-08-30T14:03:19;18.30;1.00
17178;DHT22;8704;52.006;4.374;2023-08-30T14:05:47;18.20;1.00
17178;DHT22;8704;52.006;4.374;2023-08-30T14:08:15;18.30;1.00
17178;DHT22;8704;52.006;4.374;2023-08-30T14:10:45;18.40;1.00
17178;DHT22;8704;52.006;4.374;2023-08-30T14:13:13;18.50;1.00
17178;DHT22;8704;52.006;4.374;2023-08-30T14:15:42;18.50;1.00
17178;DHT22;8704;52.006;4.374;2023-08-30T14:18:10;18.70;1.00
17178;DHT22;8704;52.006;4.374;2023-08-30T14:20:41;18.70;1.00
17178;DHT22;8704;52.006;4.374;2023-08-30T14:23:10;18.60;1.00
17178;DHT22;8704;52.006;4.374;2023-08-30T14:25:39;18.50;1.00
17178;DHT22;8704;52.006;4.374;2023-08-30T14:28:08;19.10;1.00
17178;DHT22;8704;52.006;4.374;2023-08-30T14:30:37;19.40;1.00
17178;DHT22;8704;52.006;4.374;2023-08-30T14:33:05;19.70;1.00
17178;DHT22;8704;52.006;4.374;2023-08-30T14:35:33;19.80;1.00
17178;DHT22;8704;52.006;4.374;2023-08-30T14:38:02;19.90;1.00
17178;DHT22;8704;52.006;4.374;2023-08-30T14:40:30;19.90;1.00
17178;DHT22;8704;52.006;4.374;2023-08-30T14:42:58;20.20;1.00
17178;DHT22;8704;52.006;4.374;2023-08-30T14:45:27;20.40;1.00
17178;DHT22;8704;52.006;4.374;2023-08-30T14:47:55;20.60;1.00
17178;DHT22;8704;52.006;4.374;2023-08-30T14:50:24;20.70;1.00
17178;DHT22;8704;52.006;4.374;2023-08-30T14:52:52;20.60;1.00
17178;DHT22;8704;52.006;4.374;2023-08-30T14:55:21;20.50;1.00
17178;DHT22;8704;52.006;4.374;2023-08-30T14:57:51;20.40;1.00
17178;DHT22;8704;52.006;4.374;2023-08-30T15:00:19;20.20;1.00
17178;DHT22;8704;52.006;4.374;2023-08-30T15:02:49;20.00;1.00
17178;DHT22;8704;52.006;4.374;2023-08-30T15:05:18;19.70;1.00
17178;DHT22;8704;52.006;4.374;2023-08-30T15:07:46;19.80;1.00
17178;DHT22;8704;52.006;4.374;2023-08-30T15:10:14;19.70;1.00
17178;DHT22;8704;52.006;4.374;2023-08-30T15:12:42;19.50;1.00
17178;DHT22;8704;52.006;4.374;2023-08-30T15:15:11;19.30;1.00
17178;DHT22;8704;52.006;4.374;2023-08-30T15:17:39;19.30;1.00
17178;DHT22;8704;52.006;4.374;2023-08-30T15:20:09;19.30;1.00
17178;DHT22;8704;52.006;4.374;2023-08-30T15:22:37;19.20;1.00
17178;DHT22;8704;52.006;4.374;2023-08-30T15:25:06;19.40;1.00
17178;DHT22;8704;52.006;4.374;2023-08-30T15:27:34;19.70;1.00
17178;DHT22;8704;52.006;4.374;2023-08-30T15:30:03;19.70;1.00
17178;DHT22;8704;52.006;4.374;2023-08-30T15:32:31;20.10;1.00
17178;DHT22;8704;52.006;4.374;2023-08-30T15:34:59;20.60;1.00
17178;DHT22;8704;52.006;4.374;2023-08-30T15:37:29;20.80;1.00
17178;DHT22;8704;52.006;4.374;2023-08-30T15:39:59;20.70;1.00
17178;DHT22;8704;52.006;4.374;2023-08-30T15:42:31;20.90;1.00
17178;DHT22;8704;52.006;4.374;2023-08-30T15:44:59;21.00;1.00
17178;DHT22;8704;52.006;4.374;2023-08-30T15:47:27;21.30;1.00
17178;DHT22;8704;52.006;4.374;2023-08-30T15:49:55;21.50;1.00
17178;DHT22;8704;52.006;4.374;2023-08-30T15:52:23;22.10;1.00
17178;DHT22;8704;52.006;4.374;2023-08-30T15:54:53;22.10;1.00
17178;DHT22;8704;52.006;4.374;2023-08-30T15:57:21;22.00;1.00
17178;DHT22;8704;52.006;4.374;2023-08-30T15:59:49;21.90;1.00
17178;DHT22;8704;52.006;4.374;2023-08-30T16:02:17;21.80;1.00
17178;DHT22;8704;52.006;4.374;2023-08-30T16:04:46;21.50;1.00
17178;DHT22;8704;52.006;4.374;2023-08-30T16:07:14;21.50;1.00
17178;DHT22;8704;52.006;4.374;2023-08-30T16:09:42;21.60;1.00
17178;DHT22;8704;52.006;4.374;2023-08-30T16:12:14;21.60;1.00